Time;durP1;ratioP1;P1;durP2;ratioP2;P2;SDS_P1;SDS_P2;PMS_P1;PMS_P2;Temp;Humidity;BMP_temperature;BMP_pressure;BME280_temperature;BME280_humidity;BME280_pressure;Samples;Min_cycle;Max_cycle;Signal;HPM_P1;HPM_P2
2022/05/24 00:01:41;;;;;;;9.00;7.30;;;13.80;99.90;;;;;;4976789;28;20208;-79
2022/05/24 00:04:10;;;;;;;12.77;6.77;;;13.80;99.90;;;;;;4976387;28;20228;-86
2022/05/24 00:06:37;;;;;;;13.83;7.90;;;13.80;99.90;;;;;;4979887;28;20225;-89
2022/05/24 00:09:04;;;;;;;14.00;7.60;;;13.80;99.90;;;;;;4998360;28;20536;-78
2022/05/24 00:11:31;;;;;;;14.63;8.23;;;13.80;99.90;;;;;;4994842;28;20216;-85
2022/05/24 00:13:57;;;;;;;20.67;9.53;;;13.80;99.90;;;;;;4981849;28;20213;-84
2022/05/24 00:16:24;;;;;;;14.27;8.73;;;13.90;99.90;;;;;;4984999;28;20197;-86
2022/05/24 00:18:52;;;;;;;16.07;10.90;;;13.90;99.90;;;;;;4977999;28;20200;-89
2022/05/24 00:21:20;;;;;;;15.97;11.83;;;13.90;99.90;;;;;;4977069;28;20251;-91
2022/05/24 00:23:46;;;;;;;14.97;11.03;;;13.90;99.90;;;;;;4976986;28;20224;-90
2022/05/24 00:26:21;;;;;;;14.70;10.43;;;14.00;99.90;;;;;;4976693;28;20197;-83
2022/05/24 00:28:48;;;;;;;15.97;12.40;;;14.00;99.90;;;;;;4975381;28;20643;-88
2022/05/24 00:31:15;;;;;;;17.53;14.97;;;14.00;99.90;;;;;;4974856;28;20597;-88
2022/05/24 00:33:42;;;;;;;12.33;9.57;;;14.00;99.90;;;;;;4974173;28;20201;-78
2022/05/24 00:36:08;;;;;;;10.37;9.13;;;14.00;99.90;;;;;;4973419;28;20212;-91
2022/05/24 00:38:38;;;;;;;11.87;8.80;;;14.00;99.90;;;;;;4974021;28;20205;-92
2022/05/24 00:41:15;;;;;;;7.63;6.63;;;14.00;99.90;;;;;;4974974;28;20247;-90
2022/05/24 00:43:47;;;;;;;9.23;6.63;;;14.00;99.90;;;;;;4977474;28;20203;-82
2022/05/24 00:46:17;;;;;;;7.07;5.07;;;14.00;99.90;;;;;;4993962;28;20713;-91
2022/05/24 00:48:50;;;;;;;9.10;6.07;;;14.00;99.90;;;;;;4994485;28;20244;-88
2022/05/24 00:51:24;;;;;;;12.13;6.40;;;14.00;99.90;;;;;;4994441;28;20200;-92
2022/05/24 00:53:54;;;;;;;8.27;6.10;;;14.00;99.90;;;;;;4992040;28;20203;-91
2022/05/24 00:56:35;;;;;;;7.17;6.47;;;14.00;99.90;;;;;;4976065;28;20239;-83
2022/05/24 00:59:06;;;;;;;7.77;6.40;;;14.10;99.90;;;;;;4976484;28;20197;-88
2022/05/24 01:01:38;;;;;;;12.17;7.77;;;14.00;99.90;;;;;;4975506;28;20254;-90
2022/05/24 01:04:06;;;;;;;14.73;9.77;;;14.00;99.90;;;;;;4994447;28;20219;-89
2022/05/24 01:06:33;;;;;;;13.10;8.40;;;14.00;99.90;;;;;;4993699;28;20246;-89
2022/05/24 01:09:04;;;;;;;9.67;7.20;;;14.00;99.90;;;;;;4993092;28;20204;-90
2022/05/24 01:11:36;;;;;;;13.73;8.03;;;14.00;99.90;;;;;;4994092;28;20624;-90
2022/05/24 01:14:03;;;;;;;10.10;7.07;;;14.00;99.90;;;;;;4988657;28;20204;-78
2022/05/24 01:16:30;;;;;;;13.20;8.33;;;14.00;99.90;;;;;;4986934;28;20212;-88
2022/05/24 01:18:58;;;;;;;10.57;7.93;;;14.00;99.90;;;;;;4989163;28;20363;-88
2022/05/24 01:21:24;;;;;;;11.63;8.00;;;14.00;99.90;;;;;;4988570;28;20497;-88
2022/05/24 01:24:05;;;;;;;13.00;8.63;;;14.00;99.90;;;;;;4969742;28;20523;-90
2022/05/24 01:26:42;;;;;;;13.23;8.87;;;14.00;99.90;;;;;;4969214;28;20197;-90
2022/05/24 01:29:10;;;;;;;14.87;8.10;;;14.00;99.90;;;;;;4970852;28;20249;-92
2022/05/24 01:37:09;;;;;;;12.97;7.30;;;14.00;99.90;;;;;;4970371;28;20200;-77
2022/05/24 01:39:37;;;;;;;13.83;7.70;;;14.00;99.90;;;;;;4973557;28;20219;-89
2022/05/24 01:42:09;;;;;;;9.87;7.60;;;14.00;99.90;;;;;;4972215;28;20204;-78
2022/05/24 01:44:40;;;;;;;15.67;9.13;;;14.00;99.90;;;;;;4972874;28;20208;-79
2022/05/24 01:47:07;;;;;;;16.37;9.33;;;14.00;99.90;;;;;;4972655;28;20245;-76
2022/05/24 01:49:39;;;;;;;13.73;9.03;;;14.00;99.90;;;;;;4968857;28;20232;-93
2022/05/24 01:52:10;;;;;;;18.23;10.30;;;14.00;99.90;;;;;;4969429;28;20184;-79
2022/05/24 01:54:40;;;;;;;15.60;10.10;;;14.00;99.90;;;;;;4980404;28;20200;-81
2022/05/24 01:57:14;;;;;;;19.77;10.40;;;14.00;99.90;;;;;;4988903;28;20759;-77
2022/05/24 01:59:44;;;;;;;19.90;9.73;;;14.00;99.90;;;;;;4989505;28;20192;-85
2022/05/24 02:02:11;;;;;;;21.70;9.67;;;14.00;99.90;;;;;;4970558;28;20299;-80
2022/05/24 02:04:38;;;;;;;20.73;9.47;;;14.00;99.90;;;;;;4969704;28;20609;-82
2022/05/24 02:07:09;;;;;;;17.87;8.50;;;14.00;99.90;;;;;;4969516;28;20243;-90
2022/05/24 02:09:38;;;;;;;21.60;8.20;;;14.00;99.90;;;;;;4969154;28;20300;-83
2022/05/24 02:12:12;;;;;;;23.03;9.53;;;14.00;99.90;;;;;;4969272;28;20212;-78
2022/05/24 02:14:42;;;;;;;24.13;9.13;;;14.00;99.90;;;;;;4970562;28;20252;-87
2022/05/24 02:17:13;;;;;;;21.80;9.10;;;14.00;99.90;;;;;;4969173;28;20615;-90
2022/05/24 02:19:46;;;;;;;26.67;8.83;;;14.00;99.90;;;;;;4981032;28;20204;-79
2022/05/24 02:22:18;;;;;;;22.10;8.63;;;14.00;99.90;;;;;;4989250;28;20513;-91
2022/05/24 02:24:45;;;;;;;23.33;8.03;;;14.00;99.90;;;;;;4972203;28;20223;-91
2022/05/24 02:27:13;;;;;;;23.37;8.17;;;13.90;99.90;;;;;;4970529;28;20228;-89
2022/05/24 02:29:40;;;;;;;22.30;7.93;;;13.90;99.90;;;;;;4978774;28;20666;-84
2022/05/24 02:32:07;;;;;;;19.80;7.60;;;13.90;99.90;;;;;;4988677;28;20196;-84
2022/05/24 02:34:34;;;;;;;20.90;6.70;;;14.00;99.90;;;;;;4989768;28;20192;-84
2022/05/24 02:37:01;;;;;;;24.43;7.03;;;14.00;99.90;;;;;;4990470;28;20577;-82
2022/05/24 02:39:28;;;;;;;21.43;7.73;;;14.00;99.90;;;;;;4980393;28;20219;-81
2022/05/24 02:41:54;;;;;;;24.23;8.40;;;14.00;99.90;;;;;;4969944;28;20204;-79
2022/05/24 02:44:22;;;;;;;23.47;7.57;;;14.00;99.90;;;;;;4969255;28;20590;-90
2022/05/24 02:46:49;;;;;;;21.13;6.83;;;14.00;99.90;;;;;;4968551;28;20201;-80
2022/05/24 02:49:16;;;;;;;24.93;7.77;;;14.10;99.90;;;;;;4967181;28;20244;-85
2022/05/24 02:51:45;;;;;;;23.70;8.00;;;14.10;99.90;;;;;;4967055;28;20499;-85
2022/05/24 02:54:12;;;;;;;20.70;8.20;;;14.10;99.90;;;;;;4967669;28;20624;-85
2022/05/24 02:56:39;;;;;;;28.93;8.33;;;14.10;99.90;;;;;;4967761;28;20639;-78
2022/05/24 02:59:06;;;;;;;25.23;8.10;;;14.10;99.90;;;;;;4966431;28;20321;-86
2022/05/24 03:01:34;;;;;;;24.30;7.43;;;14.10;99.90;;;;;;4970571;28;20601;-77
2022/05/24 03:04:02;;;;;;;27.97;7.63;;;14.10;99.90;;;;;;4973003;28;20209;-79
2022/05/24 03:09:33;;;;;;;24.77;7.20;;;14.10;99.90;;;;;;4971977;28;20255;-78
2022/05/24 03:14:44;;;;;;;18.73;5.60;;;14.10;99.90;;;;;;4972151;28;20192;-84
2022/05/24 03:17:12;;;;;;;18.47;6.63;;;14.10;99.90;;;;;;4972826;28;20505;-88
2022/05/24 03:19:39;;;;;;;23.50;6.60;;;14.10;99.90;;;;;;4984051;28;20220;-77
2022/05/24 03:22:08;;;;;;;23.73;5.40;;;14.10;99.90;;;;;;4986693;28;20264;-79
2022/05/24 03:24:35;;;;;;;14.20;3.97;;;14.10;99.90;;;;;;4975079;28;20605;-83
2022/05/24 03:27:05;;;;;;;20.33;4.53;;;14.00;99.90;;;;;;4973595;28;20201;-78
2022/05/24 03:29:32;;;;;;;13.03;5.17;;;14.00;99.90;;;;;;4971076;28;20198;-87
2022/05/24 03:31:59;;;;;;;11.77;4.70;;;13.90;99.90;;;;;;4972949;28;20200;-88
2022/05/24 03:34:27;;;;;;;11.87;3.53;;;13.90;99.90;;;;;;4973918;28;20212;-91
2022/05/24 03:36:54;;;;;;;7.83;2.90;;;13.90;99.90;;;;;;4973177;28;20212;-87
2022/05/24 03:39:20;;;;;;;9.73;3.30;;;13.80;99.90;;;;;;4973002;28;20201;-78
2022/05/24 03:41:47;;;;;;;12.47;3.07;;;13.80;99.90;;;;;;4981679;28;20208;-87
2022/05/24 03:44:14;;;;;;;9.57;4.00;;;13.80;99.90;;;;;;4992264;28;20706;-91
2022/05/24 03:46:41;;;;;;;13.43;3.67;;;13.70;99.90;;;;;;4991890;28;20294;-83
2022/05/24 03:49:08;;;;;;;14.53;3.90;;;13.70;99.90;;;;;;4983396;28;20240;-79
2022/05/24 03:51:36;;;;;;;7.47;3.20;;;13.70;99.90;;;;;;4972478;28;20767;-81
2022/05/24 03:54:03;;;;;;;9.33;3.83;;;13.70;99.90;;;;;;4980364;28;20219;-87
2022/05/24 03:56:30;;;;;;;13.20;4.77;;;13.70;99.90;;;;;;4970890;28;20196;-88
2022/05/24 03:58:56;;;;;;;13.33;4.97;;;13.70;99.90;;;;;;4972537;28;20220;-86
2022/05/24 04:01:23;;;;;;;15.07;5.37;;;13.70;99.90;;;;;;4975490;28;20216;-88
2022/05/24 04:03:50;;;;;;;15.00;5.10;;;13.70;99.90;;;;;;4989781;28;20290;-88
2022/05/24 04:06:17;;;;;;;10.17;5.00;;;13.70;99.90;;;;;;4995355;28;20211;-89
2022/05/24 04:08:45;;;;;;;11.03;6.63;;;13.70;99.90;;;;;;4994408;28;20228;-84
2022/05/24 04:11:12;;;;;;;17.97;7.87;;;13.60;99.90;;;;;;4994816;28;21017;-78
2022/05/24 04:13:42;;;;;;;20.77;9.77;;;13.60;99.90;;;;;;4975621;28;20202;-79
2022/05/24 04:16:10;;;;;;;17.77;7.77;;;13.70;99.90;;;;;;4976645;28;20201;-89
2022/05/24 04:18:37;;;;;;;13.03;7.23;;;13.60;99.90;;;;;;4975236;28;20215;-86
2022/05/24 04:21:06;;;;;;;18.17;6.10;;;13.70;99.90;;;;;;4975366;28;20625;-81
2022/05/24 04:23:33;;;;;;;14.43;6.97;;;13.70;99.90;;;;;;4975822;28;20262;-90
2022/05/24 04:26:05;;;;;;;11.43;4.93;;;13.70;99.90;;;;;;4982539;28;20523;-87
2022/05/24 04:28:32;;;;;;;9.47;4.37;;;13.70;99.90;;;;;;4974291;28;20608;-85
2022/05/24 04:30:58;;;;;;;13.87;5.73;;;13.70;99.90;;;;;;4986710;28;20212;-84
2022/05/24 04:33:25;;;;;;;13.77;4.47;;;13.80;99.90;;;;;;4990256;28;20205;-81
2022/05/24 04:35:52;;;;;;;7.60;3.87;;;13.80;99.90;;;;;;4988490;28;20222;-83
2022/05/24 04:38:19;;;;;;;12.90;4.20;;;13.80;99.90;;;;;;4988139;28;20228;-83
2022/05/24 04:43:32;;;;;;;8.73;4.00;;;13.90;99.90;;;;;;5002385;28;20195;-79
2022/05/24 04:45:59;;;;;;;10.33;4.60;;;13.90;99.90;;;;;;4997650;28;20208;-78
2022/05/24 04:48:26;;;;;;;10.00;4.33;;;13.90;99.90;;;;;;4997474;28;20651;-79
2022/05/24 04:50:54;;;;;;;11.90;4.13;;;13.90;99.90;;;;;;4994454;28;20218;-88
2022/05/24 04:53:21;;;;;;;15.03;5.17;;;13.90;99.90;;;;;;4990595;28;20555;-84
2022/05/24 04:55:49;;;;;;;7.20;3.90;;;13.90;99.90;;;;;;4991098;28;20215;-83
2022/05/24 04:58:16;;;;;;;14.63;3.90;;;13.90;99.90;;;;;;4990585;28;20211;-83
2022/05/24 05:00:45;;;;;;;9.63;3.40;;;13.90;99.90;;;;;;4989891;28;20487;-84
2022/05/24 05:03:13;;;;;;;9.67;3.73;;;13.90;99.90;;;;;;4976601;28;20209;-85
2022/05/24 05:05:40;;;;;;;11.83;3.20;;;13.90;99.90;;;;;;4970833;28;20216;-82
2022/05/24 05:08:08;;;;;;;12.73;3.90;;;14.00;99.90;;;;;;5024568;23;20303;-82
2022/05/24 05:10:36;;;;;;;13.13;4.00;;;14.00;99.90;;;;;;4970945;28;20966;-79
2022/05/24 05:13:04;;;;;;;11.50;4.87;;;14.00;99.90;;;;;;4969807;28;20211;-80
2022/05/24 05:15:31;;;;;;;10.23;3.80;;;14.00;99.90;;;;;;4963463;28;20340;-88
2022/05/24 05:18:04;;;;;;;7.80;2.90;;;14.00;99.90;;;;;;4955133;29;20223;-79
2022/05/24 05:20:31;;;;;;;10.97;3.60;;;14.00;99.90;;;;;;4957136;28;20231;-82
2022/05/24 05:22:58;;;;;;;8.43;3.00;;;14.00;99.90;;;;;;4974844;28;20236;-88
2022/05/24 05:25:25;;;;;;;8.60;4.27;;;14.20;99.90;;;;;;4961856;28;20208;-83
2022/05/24 05:27:52;;;;;;;11.97;3.40;;;14.40;99.90;;;;;;4952668;29;20804;-85
2022/05/24 05:33:05;;;;;;;11.90;3.93;;;14.60;99.90;;;;;;4952806;29;20240;-84
2022/05/24 05:35:32;;;;;;;9.17;3.53;;;14.60;99.90;;;;;;4952657;28;20272;-86
2022/05/24 05:37:58;;;;;;;8.23;4.30;;;14.60;99.90;;;;;;4952461;29;20202;-82
2022/05/24 05:40:25;;;;;;;13.13;5.00;;;14.70;99.90;;;;;;4953301;28;20209;-87
2022/05/24 05:42:52;;;;;;;11.40;5.40;;;14.70;99.90;;;;;;4953269;29;20212;-88
2022/05/24 05:45:19;;;;;;;10.60;4.87;;;14.70;99.90;;;;;;4952601;29;20509;-88
2022/05/24 05:47:45;;;;;;;12.57;5.25;;;14.70;99.90;;;;;;4955844;28;20491;-84
2022/05/24 05:50:14;;;;;;;14.53;6.00;;;14.90;99.90;;;;;;4968298;28;20223;-87
2022/05/24 05:52:40;;;;;;;8.50;5.10;;;15.00;99.90;;;;;;4968653;28;20639;-84
2022/05/24 05:55:08;;;;;;;11.90;4.43;;;15.10;99.90;;;;;;4968561;28;20208;-77
2022/05/24 05:57:35;;;;;;;11.37;4.23;;;15.20;99.90;;;;;;4952112;28;20217;-82
2022/05/24 06:00:02;;;;;;;12.10;3.80;;;15.10;99.90;;;;;;4950225;28;20557;-88
2022/05/24 06:02:28;;;;;;;10.03;3.90;;;15.10;99.90;;;;;;4948886;29;20212;-78
2022/05/24 06:04:55;;;;;;;12.90;3.80;;;15.10;99.90;;;;;;4949247;28;20206;-88
2022/05/24 06:07:23;;;;;;;6.50;3.60;;;15.10;99.90;;;;;;4949420;28;20237;-79
2022/05/24 06:09:50;;;;;;;9.93;3.40;;;15.00;99.90;;;;;;4957350;28;20232;-80
2022/05/24 06:12:18;;;;;;;8.93;3.20;;;15.00;99.90;;;;;;4968560;28;20212;-80
2022/05/24 06:14:45;;;;;;;7.40;3.37;;;15.00;99.90;;;;;;4969016;28;20212;-84
2022/05/24 06:17:12;;;;;;;8.77;3.63;;;14.90;99.90;;;;;;4968081;28;20292;-81
2022/05/24 06:19:39;;;;;;;9.30;4.03;;;15.00;99.90;;;;;;4951413;28;20235;-85
2022/05/24 06:22:07;;;;;;;6.57;2.60;;;14.90;99.90;;;;;;4949067;28;20221;-86
2022/05/24 06:24:35;;;;;;;4.67;2.20;;;14.70;99.90;;;;;;4948795;28;20212;-84
2022/05/24 06:27:02;;;;;;;7.83;2.37;;;14.60;99.90;;;;;;4949542;29;20201;-87
2022/05/24 06:29:32;;;;;;;6.90;2.20;;;14.50;99.90;;;;;;4952684;29;20229;-80
2022/05/24 06:32:01;;;;;;;7.23;1.90;;;14.40;99.90;;;;;;4950670;28;20244;-86
2022/05/24 06:34:29;;;;;;;9.17;2.30;;;14.30;99.90;;;;;;4952770;28;20244;-87
2022/05/24 06:36:56;;;;;;;7.23;1.90;;;14.10;99.90;;;;;;4956482;29;20286;-87
2022/05/24 06:39:23;;;;;;;10.93;3.83;;;14.00;99.90;;;;;;4972690;28;20726;-88
2022/05/24 06:41:54;;;;;;;16.67;4.70;;;13.90;99.90;;;;;;4976681;28;20601;-86
2022/05/24 06:44:23;;;;;;;13.17;5.50;;;13.90;99.90;;;;;;4964241;28;20220;-89
2022/05/24 06:46:49;;;;;;;9.77;3.93;;;14.00;99.90;;;;;;4964479;28;20209;-87
2022/05/24 06:49:16;;;;;;;10.00;3.77;;;14.00;99.90;;;;;;4957749;28;20232;-88
2022/05/24 06:51:44;;;;;;;11.90;4.47;;;14.00;99.90;;;;;;4957562;29;20208;-87
2022/05/24 06:54:11;;;;;;;17.00;5.30;;;14.10;99.90;;;;;;4957258;29;20197;-88
2022/05/24 06:56:38;;;;;;;9.37;3.70;;;14.20;99.90;;;;;;4956988;29;20205;-86
2022/05/24 07:04:38;;;;;;;9.27;2.80;;;14.50;99.90;;;;;;4957394;28;20565;-85
2022/05/24 07:07:05;;;;;;;9.07;3.57;;;14.90;99.90;;;;;;4976492;28;20257;-87
2022/05/24 07:09:31;;;;;;;10.00;3.23;;;15.50;99.90;;;;;;4976589;28;20236;-90
2022/05/24 07:11:59;;;;;;;12.18;3.95;;;15.90;99.90;;;;;;4964989;28;20215;-85
2022/05/24 07:14:28;;;;;;;16.52;5.95;;;16.00;99.90;;;;;;4954414;29;20213;-90
2022/05/24 07:16:54;;;;;;;8.48;3.40;;;15.90;99.90;;;;;;4955969;29;20201;-89
2022/05/24 07:19:23;;;;;;;7.55;3.03;;;15.80;99.90;;;;;;4955933;28;20216;-86
2022/05/24 07:21:50;;;;;;;6.67;2.63;;;15.70;99.90;;;;;;4951712;28;20624;-84
2022/05/24 07:24:16;;;;;;;6.27;2.47;;;15.70;99.90;;;;;;4969255;28;20209;-80
2022/05/24 07:26:43;;;;;;;4.43;2.50;;;15.70;99.90;;;;;;4966236;28;20204;-80
2022/05/24 07:29:10;;;;;;;6.00;2.47;;;15.70;99.90;;;;;;4966343;28;20224;-80
2022/05/24 07:31:39;;;;;;;7.50;2.50;;;15.60;99.90;;;;;;4965323;28;20640;-81
2022/05/24 07:34:06;;;;;;;6.72;2.17;;;15.50;99.90;;;;;;4964212;28;21771;-81
2022/05/24 07:36:33;;;;;;;6.50;2.63;;;15.60;99.90;;;;;;4965511;28;20296;-82
2022/05/24 07:39:00;;;;;;;2.20;1.70;;;15.70;99.90;;;;;;4966447;28;20935;-79
2022/05/24 07:46:57;;;;;;;7.83;2.60;;;15.60;99.90;;;;;;4961760;28;20593;-80
2022/05/24 07:49:24;;;;;;;5.55;2.60;;;15.60;99.90;;;;;;4964118;28;20235;-80
2022/05/24 07:51:50;;;;;;;8.65;3.80;;;15.70;99.90;;;;;;4966561;28;20220;-81
2022/05/24 07:54:17;;;;;;;10.15;3.95;;;15.60;99.90;;;;;;4967457;28;20309;-79
2022/05/24 07:56:45;;;;;;;6.32;4.07;;;15.60;99.90;;;;;;4967949;28;20219;-83
2022/05/24 07:59:11;;;;;;;8.02;3.35;;;15.50;99.90;;;;;;4965328;28;20212;-82
2022/05/24 08:01:40;;;;;;;7.10;3.05;;;15.40;99.90;;;;;;4967033;28;20223;-81
2022/05/24 08:04:09;;;;;;;5.27;2.40;;;15.30;99.90;;;;;;4968091;28;20541;-77
2022/05/24 08:06:36;;;;;;;3.00;2.30;;;15.30;99.90;;;;;;4966460;28;20288;-80
2022/05/24 08:09:03;;;;;;;5.37;2.50;;;15.60;99.90;;;;;;4967235;28;20235;-80
2022/05/24 08:11:30;;;;;;;5.05;2.35;;;15.80;99.90;;;;;;4967222;28;20220;-77
2022/05/24 08:13:59;;;;;;;3.65;1.92;;;15.90;99.90;;;;;;4963801;28;20620;-80
2022/05/24 08:16:26;;;;;;;10.30;3.15;;;16.00;99.90;;;;;;4967068;28;20660;-80
2022/05/24 08:18:53;;;;;;;9.40;3.50;;;16.10;99.90;;;;;;4963282;28;20212;-85
2022/05/24 08:21:22;;;;;;;6.05;3.05;;;16.00;99.90;;;;;;4967153;28;20299;-82
2022/05/24 08:23:49;;;;;;;6.80;2.53;;;15.80;99.90;;;;;;4968543;28;20606;-80
2022/05/24 08:26:16;;;;;;;3.15;1.92;;;15.70;99.90;;;;;;4966619;28;20221;-77
2022/05/24 08:28:43;;;;;;;3.85;2.33;;;15.50;99.90;;;;;;4965009;28;20213;-78
2022/05/24 08:31:11;;;;;;;4.82;2.45;;;15.50;99.90;;;;;;4966271;28;20209;-80
2022/05/24 08:33:39;;;;;;;3.75;3.03;;;15.50;99.90;;;;;;4965148;28;20209;-78
2022/05/24 08:36:07;;;;;;;5.88;2.90;;;15.50;99.90;;;;;;4966117;28;20539;-77
2022/05/24 08:38:35;;;;;;;5.35;2.95;;;15.60;99.90;;;;;;4965746;28;20619;-79
2022/05/24 08:41:06;;;;;;;4.50;3.13;;;15.70;99.90;;;;;;4960507;28;20494;-83
2022/05/24 08:48:22;;;;;;;6.63;3.42;;;15.60;99.90;;;;;;4960847;28;20287;-77
2022/05/24 08:49:32;;;;;;;6.43;4.93;;;15.70;99.90;;;;;;4968062;28;20228;-79
2022/05/24 08:52:02;;;;;;;7.93;4.72;;;15.60;99.90;;;;;;4966196;28;20212;-81
2022/05/24 08:54:37;;;;;;;9.83;5.53;;;15.50;99.90;;;;;;4965876;28;20212;-82
2022/05/24 08:57:07;;;;;;;8.80;4.97;;;15.50;99.90;;;;;;4961821;28;20926;-81
2022/05/24 08:59:36;;;;;;;5.00;1.90;;;15.30;99.90;;;;;;4964377;28;20205;-81
2022/05/24 09:02:05;;;;;;;3.33;1.57;;;15.20;99.90;;;;;;4964676;28;20883;-81
2022/05/24 09:04:32;;;;;;;4.83;0.90;;;14.90;99.90;;;;;;4967634;28;20197;-88
2022/05/24 09:07:05;;;;;;;2.30;0.87;;;14.60;99.90;;;;;;4968406;28;20247;-80
2022/05/24 09:09:50;;;;;;;3.03;0.70;;;14.50;99.90;;;;;;4962652;28;20614;-80
2022/05/24 09:12:46;;;;;;;2.93;0.93;;;14.30;99.90;;;;;;4964850;28;20902;-78
2022/05/24 09:15:23;;;;;;;1.03;0.73;;;14.10;99.90;;;;;;4967795;28;20205;-80
2022/05/24 09:18:01;;;;;;;4.57;1.00;;;14.00;99.90;;;;;;4962301;28;20461;-81
2022/05/24 09:20:32;;;;;;;3.33;0.90;;;14.00;99.90;;;;;;4965851;28;20200;-84
2022/05/24 09:23:04;;;;;;;1.73;0.90;;;14.00;99.90;;;;;;4967335;28;20239;-82
2022/05/24 09:25:32;;;;;;;2.13;1.20;;;13.90;99.90;;;;;;4965369;28;20205;-81
2022/05/24 09:27:59;;;;;;;2.03;1.10;;;13.90;99.90;;;;;;4966875;28;20216;-88
2022/05/24 09:30:36;;;;;;;4.87;1.97;;;13.80;99.90;;;;;;4967429;28;20236;-92
2022/05/24 09:33:20;;;;;;;4.03;1.33;;;13.80;99.90;;;;;;4965374;28;20240;-83
2022/05/24 09:35:49;;;;;;;2.23;0.90;;;13.70;99.90;;;;;;4962448;28;20228;-82
2022/05/24 09:38:22;;;;;;;3.07;1.40;;;13.70;99.90;;;;;;4965932;28;20208;-84
2022/05/24 09:40:54;;;;;;;2.97;1.13;;;13.70;99.90;;;;;;4965331;28;20197;-85
2022/05/24 09:43:27;;;;;;;3.13;1.23;;;13.80;99.90;;;;;;4966638;28;20212;-80
2022/05/24 09:45:58;;;;;;;7.33;1.30;;;13.90;99.90;;;;;;4963734;28;20200;-83
2022/05/24 09:48:35;;;;;;;2.57;1.40;;;14.10;99.90;;;;;;4964622;28;20264;-81
2022/05/24 09:51:04;;;;;;;6.50;2.13;;;14.30;99.90;;;;;;4966141;28;20220;-82
2022/05/24 09:53:33;;;;;;;5.40;2.63;;;14.60;99.90;;;;;;4965212;28;20596;-81
2022/05/24 09:56:05;;;;;;;5.87;3.40;;;15.20;99.90;;;;;;4963910;28;20228;-84
2022/05/24 09:58:35;;;;;;;9.43;3.60;;;15.70;99.90;;;;;;4968175;28;20259;-85
2022/05/24 10:01:04;;;;;;;6.17;3.97;;;16.10;99.90;;;;;;4962639;28;20591;-82
2022/05/24 10:03:34;;;;;;;8.55;4.25;;;16.20;99.90;;;;;;4968762;28;20204;-83
2022/05/24 10:06:11;;;;;;;10.32;4.78;;;16.20;99.90;;;;;;4968515;28;20253;-88
2022/05/24 10:08:41;;;;;;;5.03;3.13;;;16.20;99.90;;;;;;4968486;28;20239;-85
2022/05/24 10:11:26;;;;;;;4.72;2.60;;;16.10;99.90;;;;;;4966639;28;20225;-85
2022/05/24 10:14:07;;;;;;;7.47;2.80;;;16.30;99.90;;;;;;4965845;28;20201;-82
2022/05/24 10:16:38;;;;;;;7.03;3.40;;;16.50;99.90;;;;;;4966999;28;20213;-83
2022/05/24 10:19:33;;;;;;;4.82;3.03;;;16.80;99.90;;;;;;4968648;28;20208;-87
2022/05/24 10:22:09;;;;;;;5.93;2.92;;;17.00;99.90;;;;;;4935890;28;20225;-83
2022/05/24 10:24:49;;;;;;;5.13;3.80;;;17.20;99.90;;;;;;4950469;29;20200;-77
2022/05/24 10:27:24;;;;;;;7.63;4.32;;;17.30;99.90;;;;;;4948300;29;20191;-82
2022/05/24 10:29:56;;;;;;;7.03;4.00;;;17.50;99.90;;;;;;4945664;28;20221;-80
2022/05/24 10:38:45;;;;;;;10.00;5.78;;;17.60;99.90;;;;;;4950806;29;20498;-82
2022/05/24 10:41:17;;;;;;;6.55;4.50;;;17.50;99.90;;;;;;4953558;28;20319;-82
2022/05/24 10:44:01;;;;;;;9.15;4.28;;;17.40;99.90;;;;;;4968377;28;20593;-81
2022/05/24 10:46:35;;;;;;;8.85;4.13;;;17.40;99.90;;;;;;4969415;28;20204;-81
2022/05/24 10:49:08;;;;;;;5.65;3.83;;;17.40;99.90;;;;;;4972209;28;20196;-82
2022/05/24 10:51:48;;;;;;;6.65;4.88;;;17.40;99.90;;;;;;4972710;28;20204;-81
2022/05/24 10:54:26;;;;;;;6.20;3.63;;;17.30;99.90;;;;;;4963286;28;20220;-80
2022/05/24 10:56:58;;;;;;;5.20;3.58;;;17.30;99.90;;;;;;4950562;29;20210;-82
2022/05/24 10:59:36;;;;;;;8.52;3.97;;;17.40;99.90;;;;;;4971301;28;20208;-81
2022/05/24 11:02:16;;;;;;;6.70;3.22;;;17.40;99.90;;;;;;4969284;28;20201;-79
2022/05/24 11:04:49;;;;;;;6.70;3.55;;;17.50;99.90;;;;;;4963148;29;20822;-78
2022/05/24 11:07:19;;;;;;;10.25;4.93;;;17.80;99.90;;;;;;4964690;29;20248;-77
2022/05/24 11:09:55;;;;;;;5.65;3.92;;;18.10;99.90;;;;;;4964415;28;20282;-81
2022/05/24 11:12:25;;;;;;;7.78;3.70;;;18.40;99.90;;;;;;4962149;29;20646;-81
2022/05/24 11:14:57;;;;;;;8.27;3.83;;;18.40;99.90;;;;;;4953692;29;20644;-84
2022/05/24 11:17:24;;;;;;;8.88;3.95;;;18.30;99.90;;;;;;4955676;28;20211;-81
2022/05/24 11:19:54;;;;;;;6.00;3.20;;;18.00;99.90;;;;;;4967635;28;20634;-81
2022/05/24 11:22:28;;;;;;;11.85;3.55;;;17.70;99.90;;;;;;4970100;28;20336;-79
2022/05/24 11:25:02;;;;;;;8.77;3.50;;;17.60;99.90;;;;;;4951277;29;20260;-81
2022/05/24 11:27:32;;;;;;;9.30;4.03;;;17.50;99.90;;;;;;4951750;29;20205;-82
2022/05/24 11:30:08;;;;;;;7.20;3.92;;;17.50;99.90;;;;;;4949106;28;20229;-77
2022/05/24 11:32:39;;;;;;;6.68;3.47;;;17.70;99.90;;;;;;4948165;29;20962;-80
2022/05/24 11:35:11;;;;;;;8.63;3.50;;;18.00;99.90;;;;;;4949691;28;20217;-81
2022/05/24 11:37:40;;;;;;;8.25;3.45;;;18.30;99.90;;;;;;4949950;29;20276;-78
2022/05/24 11:40:39;;;;;;;9.27;5.15;;;18.60;99.90;;;;;;4947737;29;20653;-79
2022/05/24 11:43:08;;;;;;;6.80;3.35;;;18.90;99.90;;;;;;4907921;29;20342;-80
2022/05/24 11:46:02;;;;;;;6.53;3.10;;;19.20;99.90;;;;;;4939822;29;20336;-81
2022/05/24 11:48:47;;;;;;;5.15;2.80;;;19.50;99.90;;;;;;4949076;29;20204;-78
2022/05/24 11:51:39;;;;;;;4.63;2.92;;;19.70;99.90;;;;;;4949018;28;20230;-80
2022/05/24 11:54:09;;;;;;;6.80;3.28;;;19.30;99.90;;;;;;4947906;29;20209;-79
2022/05/24 11:56:38;;;;;;;5.38;2.80;;;19.10;99.90;;;;;;4948703;29;20212;-81
2022/05/24 11:59:06;;;;;;;9.13;3.28;;;19.00;99.90;;;;;;4966384;28;20871;-84
2022/05/24 12:01:48;;;;;;;6.72;2.90;;;18.90;99.90;;;;;;4967494;28;20204;-79
2022/05/24 12:10:52;;;;;;;7.32;2.80;;;18.30;99.90;;;;;;4949103;29;20573;-79
2022/05/24 12:13:55;;;;;;;11.43;3.50;;;18.10;99.90;;;;;;4948170;28;20241;-79
2022/05/24 12:16:46;;;;;;;3.97;2.70;;;18.00;99.90;;;;;;4947978;29;20213;-82
2022/05/24 12:19:44;;;;;;;6.13;2.58;;;18.30;99.90;;;;;;4948713;29;20229;-81
2022/05/24 12:22:12;;;;;;;12.43;3.78;;;18.50;99.90;;;;;;4947560;28;20307;-79
2022/05/24 12:24:58;;;;;;;6.45;3.17;;;18.60;99.90;;;;;;4948153;29;20205;-82
2022/05/24 12:27:45;;;;;;;8.30;2.63;;;18.50;99.90;;;;;;4933183;29;20233;-83
2022/05/24 12:30:36;;;;;;;7.93;2.22;;;18.40;99.90;;;;;;4948432;28;20235;-78
2022/05/24 12:33:18;;;;;;;7.18;3.03;;;18.30;99.90;;;;;;4941669;28;20206;-79
2022/05/24 12:35:57;;;;;;;8.18;3.13;;;18.30;99.90;;;;;;4947049;28;20408;-80
2022/05/24 12:38:30;;;;;;;4.38;1.98;;;18.60;99.90;;;;;;4956450;28;20219;-82
2022/05/24 12:41:26;;;;;;;7.57;2.90;;;18.90;99.90;;;;;;4967930;28;20212;-81
2022/05/24 12:43:57;;;;;;;8.68;3.63;;;18.90;99.90;;;;;;4967521;28;20208;-81
2022/05/24 12:46:28;;;;;;;5.03;1.98;;;19.00;99.90;;;;;;4968172;28;20212;-79
2022/05/24 12:49:03;;;;;;;4.60;2.30;;;18.90;99.90;;;;;;4960840;28;21024;-80
2022/05/24 12:51:30;;;;;;;6.28;2.67;;;18.60;99.90;;;;;;4967609;28;20216;-80
2022/05/24 12:54:08;;;;;;;6.10;2.75;;;18.40;99.90;;;;;;4963249;28;20212;-78
2022/05/24 12:56:34;;;;;;;6.10;2.20;;;18.30;99.90;;;;;;4948581;29;20216;-77
2022/05/24 12:59:10;;;;;;;5.60;2.10;;;18.60;99.90;;;;;;4947985;28;20260;-80
2022/05/24 13:01:42;;;;;;;5.05;2.20;;;18.70;99.90;;;;;;4948029;29;20197;-80
2022/05/24 13:04:16;;;;;;;4.00;2.15;;;18.80;99.90;;;;;;4947630;29;20208;-81
2022/05/24 13:06:44;;;;;;;9.00;2.90;;;19.20;99.90;;;;;;4947878;29;20214;-76
2022/05/24 13:09:22;;;;;;;7.32;2.22;;;19.40;99.90;;;;;;4947021;28;20209;-80
2022/05/24 13:11:53;;;;;;;6.35;2.30;;;19.50;99.90;;;;;;4946546;28;20228;-80
2022/05/24 13:14:46;;;;;;;7.80;2.63;;;19.50;99.90;;;;;;4947537;29;20605;-80
2022/05/24 13:17:15;;;;;;;6.95;2.15;;;19.40;99.90;;;;;;4947224;29;20212;-79
2022/05/24 13:19:46;;;;;;;5.65;2.03;;;19.20;99.90;;;;;;4947062;28;20213;-79
2022/05/24 13:22:14;;;;;;;5.25;1.95;;;19.00;99.90;;;;;;4947795;28;20548;-80
2022/05/24 13:24:57;;;;;;;3.92;1.85;;;19.00;99.90;;;;;;4946437;28;20220;-79
2022/05/24 13:27:25;;;;;;;4.63;1.95;;;19.00;99.90;;;;;;4947032;29;20196;-79
2022/05/24 13:35:32;;;;;;;4.88;1.80;;;19.60;99.90;;;;;;4946925;29;20192;-79
2022/05/24 13:38:01;;;;;;;5.35;1.73;;;19.80;99.90;;;;;;4946046;29;20216;-79
2022/05/24 13:40:43;;;;;;;5.18;2.10;;;19.90;99.90;;;;;;4946850;28;20295;-78
2022/05/24 13:43:10;;;;;;;3.53;1.85;;;20.20;99.90;;;;;;4945922;28;20205;-79
2022/05/24 13:45:38;;;;;;;3.67;1.70;;;20.30;99.90;;;;;;4945732;28;20216;-81
2022/05/24 13:48:24;;;;;;;6.30;2.15;;;20.50;99.90;;;;;;4978259;23;20334;-82
2022/05/24 13:50:52;;;;;;;4.03;1.98;;;20.30;99.90;;;;;;4985420;28;20642;-81